• Join FlightAware (Why Join?)
  • Login
  • US Flag 
07:09PM EDT


 

Airport Tracker/Info


-or-


 

Live Flight TrackerFlight Track Log ✈ SWA492 ✈ 28-Jul-2013 ✈ KMDW - KBOS

Flight Track Log - Related Links

Times and Time Zones

All times are in EDT time to prevent confusion due to time zone crossing. See the SWA492 flight status page for this flight to view local times or setup timezone preferences in your user account.

Time Position Orientation Groundspeed Altitude Reporting Facility
EDT Latitude Longitude Course Direction KTS MPH feet Rate Location/Type
08:43AM 41.8167 -87.7667 86° East 241 277 3,000  Level Chicago TRACON
08:44AM 41.8000 -87.6667 103° East 245 282 3,000  Level Chicago TRACON
08:45AM 41.7833 -87.5833 105° East 247 284 3,000 840 Level Chicago TRACON
08:46AM 41.7667 -87.5000 105° East 280 322 4,600 2,100 Climbing Chicago TRACON
08:46AM 41.7700 -87.4447 85° East 297 342 6,000 3,120 Climbing Chicago Center
08:47AM 41.7678 -87.3283 91° East 315 362 9,400 3,360 Climbing Chicago Center
08:48AM 41.7514 -86.7921 86° East  Level FlightAware Approximate
08:48AM 41.7656 -87.2044 91° East 328 377 13,000  Level Chicago Center
08:49AM 41.7603 -87.0758 93° East 344 396 16,400 2,760 Climbing Chicago Center
08:50AM 41.7681 -86.9367 86° East 370 426 18,700 2,340 Climbing Chicago Center
08:51AM 41.8278 -86.8067 58° Northeast 399 459 21,300 2,820 Climbing Chicago Center
08:52AM 41.8969 -86.6419 61° Northeast 419 482 24,500 2,700 Climbing Chicago Center
08:53AM 41.9575 -86.5014 60° Northeast 429 494 26,900 2,160 Climbing Chicago Center
08:55AM 42.0192 -86.3564 60° Northeast 439 505 29,000 1,800 Climbing Chicago Center
08:56AM 42.0228 -86.1806 88° East 468 539 30,600 1,320 Climbing Chicago Center
08:57AM 42.0419 -86.0014 82° East 485 558 31,800 1,440 Climbing Chicago Center
08:58AM 42.0667 -85.8225 79° East 495 570 33,600 1,380 Climbing Chicago Center
08:59AM 42.0917 -85.6406 79° East 498 573 34,700 1,440 Climbing Chicago Center
09:00AM 42.1219 -85.4192 79° East 504 580 36,600 1,440 Climbing Chicago Center
09:01AM 42.1461 -85.2375 80° East 499 574 37,700 960 Climbing Chicago Center
09:02AM 42.1650 -85.0550 82° East 496 571 38,600 600 Climbing Chicago Center
09:03AM 42.1833 -84.8736 82° East 493 567 39,000 180 Climbing Chicago Center
09:04AM 42.2011 -84.6911 82° East 494 568 39,000  Level Chicago Center
09:05AM 42.2189 -84.5081 82° East 494 568 39,000  Level Chicago Center
09:06AM 42.2367 -84.3261 82° East 492 566 39,000  Level Chicago Center
09:07AM 42.2575 -84.1064 83° East 493 567 39,000  Level Chicago Center
09:08AM 42.2750 -83.9247 83° East 491 565 39,000  Level Chicago Center
09:09AM 42.2903 -83.7436 83° East 489 563 39,000  Level Chicago Center
09:10AM 42.3081 -83.5228 84° East 489 563 39,000  Level Cleveland Center
09:11AM 42.3231 -83.3353 84° East 494 568 39,000  Level Cleveland Center
09:12AM 42.3372 -83.1703 83° East 499 574 39,000  Level Cleveland Center
09:13AM 42.3536 -82.9883 83° East 499 574 39,000  Level Cleveland Center
09:14AM 42.3678 -82.8033 84° East 494 568 39,000  Level Cleveland Center
09:15AM 42.3839 -82.6211 83° East 494 568 39,000  Level Cleveland Center
09:16AM 42.3972 -82.4417 84° East 489 563 39,000  Level Cleveland Center
09:17AM 42.4125 -82.2592 83° East 484 557 39,000  Level Cleveland Center
09:18AM 42.4275 -82.0825 83° East 479 551 39,000  Level Cleveland Center
09:19AM 42.4403 -81.9000 85° East 484 557 39,000  Level Cleveland Center
09:20AM 42.4544 -81.7256 84° East 479 551 39,000  Level Cleveland Center
09:21AM 42.4667 -81.5344 85° East 479 551 39,000  Level Cleveland Center
09:22AM 42.4806 -81.3517 84° East 479 551 39,000  Level Cleveland Center
09:23AM 42.4919 -81.1717 85° East 479 551 39,000  Level Cleveland Center
09:24AM 42.5033 -80.9944 85° East 479 551 39,000  Level Cleveland Center
09:25AM 42.5119 -80.8142 86° East 479 551 39,000  Level Cleveland Center
09:26AM 42.5247 -80.6339 84° East 479 551 39,000  Level Cleveland Center
09:27AM 42.5372 -80.4564 84° East 479 551 39,000  Level Cleveland Center
09:28AM 42.5475 -80.2817 85° East 473 544 39,000  Level Cleveland Center
09:29AM 42.5572 -80.0983 86° East 478 550 39,000  Level Cleveland Center
09:30AM 42.5708 -79.9236 84° East 478 550 39,000  Level Cleveland Center
09:31AM 42.5822 -79.7428 85° East 473 544 39,000  Level Cleveland Center
09:32AM 42.5892 -79.5681 87° East 473 544 39,000  Level Cleveland Center
09:33AM 42.6019 -79.3900 84° East 473 544 39,000  Level Cleveland Center
09:34AM 42.6083 -79.2122 87° East 473 544 39,000  Level Cleveland Center
09:35AM 42.6167 -79.0342 86° East 473 544 39,000  Level Cleveland Center
09:36AM 42.6244 -78.8533 87° East 473 544 39,000  Level Cleveland Center
09:37AM 42.6342 -78.6756 86° East 473 544 39,000  Level Cleveland Center
09:38AM 42.6417 -78.5003 87° East 473 544 39,000  Level Cleveland Center
09:39AM 42.6486 -78.3219 87° East 473 544 39,000  Level Cleveland Center
09:40AM 42.6553 -78.1411 87° East 473 544 39,000  Level Cleveland Center
09:41AM 42.6639 -77.9628 86° East 473 544 39,000  Level Cleveland Center
09:42AM 42.6700 -77.7761 87° East 479 551 39,000  Level Cleveland Center
09:43AM 42.6758 -77.5953 87° East 479 551 39,000  Level Cleveland Center
09:44AM 42.6817 -77.4256 87° East 479 551 39,000  Level Cleveland Center
09:46AM 42.6911 -77.1328 87° East 487 560 39,000  Level Boston Center
09:47AM 42.6967 -76.9494 88° East 487 560 39,000  Level Boston Center
09:48AM 42.7017 -76.7633 88° East 481 554 39,000  Level Boston Center
09:49AM 42.7064 -76.5800 88° East 481 554 39,000  Level Boston Center
09:50AM 42.7111 -76.3908 88° East 486 559 39,000  Level Boston Center
09:51AM 42.7139 -76.1875 89° East 486 559 39,000  Level Boston Center
09:52AM 42.7217 -76.0042 87° East 492 566 39,000  Level Boston Center
09:53AM 42.7233 -75.8206 89° East 492 566 39,000  Level Boston Center
09:54AM 42.7264 -75.6369 89° East 492 566 39,000  Level Boston Center
09:55AM 42.7292 -75.4561 89° East 482 555 39,000  Level Boston Center
09:56AM 42.7339 -75.2783 88° East 476 548 39,000  Level Boston Center
09:57AM 42.7361 -75.0944 89° East 476 548 39,000  Level Boston Center
09:58AM 42.7381 -74.9164 89° East 476 548 39,000 -900 Level Boston Center
09:59AM 42.7400 -74.7356 89° East 471 542 37,300 -1,020 Descending Boston Center
10:00AM 42.7411 -74.5633 89° East 471 542 37,000 -180 Descending Boston Center
10:01AM 42.7444 -74.3853 88° East 471 542 37,000  Level Boston Center
10:02AM 42.7453 -74.2042 90° East 471 542 37,000  Level Boston Center
10:03AM 42.7436 -74.0261 91° East 471 542 37,000 -420 Level Boston Center
10:04AM 42.7461 -73.8453 89° East 477 549 36,200 -960 Descending Boston Center
10:05AM 42.7356 -73.6669 95° East 476 548 35,200 -1,020 Descending Boston Center
10:06AM 42.7164 -73.4969 99° East 470 541 34,300 -960 Descending Boston Center
10:07AM 42.6972 -73.3186 98° East 463 533 33,300 -2,040 Descending Boston Center
10:08AM 42.6794 -73.1433 98° East 463 533 30,300 -2,940 Descending Boston Center
10:09AM 42.6575 -72.9653 99° East 468 539 27,500 -2,700 Descending Boston Center
10:10AM 42.6375 -72.7928 99° East 468 539 24,900 -2,640 Descending Boston Center
10:11AM 42.6211 -72.6292 98° East 455 524 22,200 -2,640 Descending Boston Center
10:12AM 42.5964 -72.4597 101° East 436 502 19,700 -2,280 Descending Boston Center
10:13AM 42.5797 -72.3300 100° East 421 484 17,800 -2,460 Descending Boston Center
10:14AM 42.5583 -72.1667 100° East 409 471 14,900 -2,520 Descending Boston Center
10:15AM 42.5414 -72.0231 99° East 399 459 12,800 -2,160 Descending Boston Center
10:16AM 42.5303 -71.8850 96° East 377 434 10,600 -1,560 Descending Boston Center
10:17AM 42.5381 -71.7581 85° East 351 404 9,800 -1,080 Descending Boston Center
10:18AM 42.5497 -71.6425 82° East 314 361 8,500 -960 Descending Boston Center
10:19AM 42.5572 -71.5467 84° East 290 334 7,900 -720 Descending Boston Center
10:20AM 42.5753 -71.4447 76° East 255 293 7,100 -720 Descending Boston Center
10:21AM 42.5892 -71.3656 77° East 237 273 6,500 -720 Descending Boston Center
10:22AM 42.5656 -71.2900 113° Southeast 197 227 5,700 -780 Descending Boston Center
10:23AM 42.5339 -71.2456 134° Southeast 190 219 5,000 -900 Descending Boston Center
10:24AM 42.4956 -71.1900 133° Southeast 190 219 4,000 -1,260 Descending Boston Center
10:25AM 42.4658 -71.1456 132° Southeast 185 213 2,500 -1,320 Descending Boston Center
10:26AM 42.4278 -71.0900 133° Southeast 180 207 1,500 -960 Descending Boston Center
10:27AM 42.4003 -71.0511 134° Southeast 170 196 700 -540 Descending Boston Center
10:28AM 42.3683 -71.0097 136° Southeast 164 189 500 11,520 Descending Boston Center
10:29AM 42.3367 -70.9683 136° Southeast 164 189 24,000 11,640 Climbing Boston Center
10:30AM 42.3050 -70.9269 136° Southeast 164 189 24,000  Level Boston Center